Time;durP1;ratioP1;P1;durP2;ratioP2;P2;SDS_P1;SDS_P2;PMS_P1;PMS_P2;Temp;Humidity;BMP_temperature;BMP_pressure;BME280_temperature;BME280_humidity;BME280_pressure;Samples;Min_cycle;Max_cycle;Signal;HPM_P1;HPM_P2
2022/01/04 00:02:22;;;;;;;21.23;7.05;;;;;;;;;;4997464;28;20034;-63
2022/01/04 00:04:48;;;;;;;15.20;5.28;;;;;;;;;;4999997;28;20026;-63
2022/01/04 00:07:14;;;;;;;14.43;6.35;;;;;;;;;;4994337;28;20038;-63
2022/01/04 00:09:43;;;;;;;19.85;5.53;;;;;;;;;;5006191;28;20433;-63
2022/01/04 00:14:55;;;;;;;22.55;5.68;;;;;;;;;;4986698;28;20490;-63
2022/01/04 00:17:21;;;;;;;21.63;7.07;;;;;;;;;;5002888;28;20053;-63
2022/01/04 00:19:47;;;;;;;19.60;4.80;;;;;;;;;;4994331;28;20027;-63
2022/01/04 00:22:13;;;;;;;21.98;4.55;;;;;;;;;;4993409;28;20384;-63
2022/01/04 00:24:39;;;;;;;17.70;5.03;;;;;;;;;;4993807;28;20026;-63
2022/01/04 00:27:06;;;;;;;13.75;4.05;;;;;;;;;;5000665;28;20068;-63
2022/01/04 00:29:32;;;;;;;10.43;4.13;;;;;;;;;;4959920;28;20026;-63
2022/01/04 00:31:58;;;;;;;14.45;4.18;;;;;;;;;;4993643;28;20030;-63
2022/01/04 00:34:24;;;;;;;17.67;4.43;;;;;;;;;;4993010;28;20034;-63
2022/01/04 00:36:50;;;;;;;15.43;4.05;;;;;;;;;;4993589;28;20073;-63
2022/01/04 00:39:16;;;;;;;14.63;5.03;;;;;;;;;;4993126;28;20054;-63
2022/01/04 00:41:42;;;;;;;13.38;4.75;;;;;;;;;;4992853;28;20030;-63
2022/01/04 00:44:09;;;;;;;12.15;3.78;;;;;;;;;;4992520;28;20041;-63
2022/01/04 00:46:35;;;;;;;14.60;4.00;;;;;;;;;;4991827;28;20023;-63
2022/01/04 00:49:10;;;;;;;19.77;3.72;;;;;;;;;;5005298;28;20026;-63
2022/01/04 00:51:41;;;;;;;10.38;3.50;;;;;;;;;;5012166;28;20041;-63
2022/01/04 00:54:07;;;;;;;18.35;3.70;;;;;;;;;;5012804;28;20041;-63
2022/01/04 00:56:34;;;;;;;9.50;3.60;;;;;;;;;;4993376;28;20030;-63
2022/01/04 00:59:00;;;;;;;14.77;3.60;;;;;;;;;;4993016;28;20061;-63
2022/01/04 01:01:26;;;;;;;22.23;3.78;;;;;;;;;;4993012;28;20062;-63
2022/01/04 01:03:52;;;;;;;18.00;4.32;;;;;;;;;;4975517;28;20029;-63
2022/01/04 01:06:19;;;;;;;15.82;3.47;;;;;;;;;;4992879;28;20026;-63
2022/01/04 01:08:45;;;;;;;20.98;3.83;;;;;;;;;;4992756;28;20383;-63
2022/01/04 01:11:12;;;;;;;14.70;3.15;;;;;;;;;;4992721;28;20050;-63
2022/01/04 01:13:38;;;;;;;11.50;3.42;;;;;;;;;;4992783;28;20479;-63
2022/01/04 01:16:05;;;;;;;20.73;3.90;;;;;;;;;;4992706;28;20034;-63
2022/01/04 01:18:31;;;;;;;17.05;3.33;;;;;;;;;;4992477;28;20050;-63
2022/01/04 01:20:57;;;;;;;9.82;3.72;;;;;;;;;;4992464;28;20557;-63
2022/01/04 01:23:23;;;;;;;12.38;3.30;;;;;;;;;;4992638;28;20509;-63
2022/01/04 01:25:50;;;;;;;16.15;3.60;;;;;;;;;;4992330;28;20026;-63
2022/01/04 01:28:17;;;;;;;16.50;3.90;;;;;;;;;;4992702;28;20040;-63
2022/01/04 01:30:44;;;;;;;24.88;4.32;;;;;;;;;;5008148;28;20026;-63
2022/01/04 01:33:11;;;;;;;12.63;4.55;;;;;;;;;;5007028;28;20075;-63
2022/01/04 01:35:38;;;;;;;15.32;4.03;;;;;;;;;;5001555;28;20437;-63
2022/01/04 01:38:04;;;;;;;12.02;3.50;;;;;;;;;;5012069;28;20042;-63
2022/01/04 01:40:31;;;;;;;17.60;3.75;;;;;;;;;;5011136;28;20029;-63
2022/01/04 01:42:57;;;;;;;16.63;5.60;;;;;;;;;;4992864;28;20533;-63
2022/01/04 01:45:24;;;;;;;10.27;3.50;;;;;;;;;;4992301;28;20121;-63
2022/01/04 01:47:51;;;;;;;14.95;3.85;;;;;;;;;;4992442;28;20027;-63
2022/01/04 01:50:17;;;;;;;16.98;3.85;;;;;;;;;;4992531;28;20181;-63
2022/01/04 01:52:46;;;;;;;16.35;5.18;;;;;;;;;;4992465;28;20078;-63
2022/01/04 01:55:12;;;;;;;10.93;3.58;;;;;;;;;;4992143;28;20197;-63
2022/01/04 01:57:39;;;;;;;12.30;3.65;;;;;;;;;;4992021;28;20037;-62
2022/01/04 02:00:07;;;;;;;11.77;2.97;;;;;;;;;;4992385;28;20026;-63
2022/01/04 02:02:33;;;;;;;19.75;3.47;;;;;;;;;;4992203;28;20438;-63
2022/01/04 02:04:59;;;;;;;15.45;4.20;;;;;;;;;;4992171;28;20410;-63
2022/01/04 02:07:27;;;;;;;15.35;3.95;;;;;;;;;;4991925;28;20026;-63
2022/01/04 02:10:02;;;;;;;13.93;3.53;;;;;;;;;;4994052;28;20026;-63
2022/01/04 02:12:30;;;;;;;11.70;3.85;;;;;;;;;;4995959;28;20371;-63
2022/01/04 02:14:56;;;;;;;16.60;3.75;;;;;;;;;;4995878;28;20112;-63
2022/01/04 02:17:22;;;;;;;14.13;3.60;;;;;;;;;;4995907;28;20080;-63
2022/01/04 02:19:48;;;;;;;19.55;4.43;;;;;;;;;;4995990;28;20100;-63
2022/01/04 02:22:14;;;;;;;18.55;4.00;;;;;;;;;;4996230;28;20041;-63
2022/01/04 02:24:40;;;;;;;22.48;6.22;;;;;;;;;;4995454;28;20399;-62
2022/01/04 02:27:06;;;;;;;15.45;4.47;;;;;;;;;;4995688;28;20027;-63
2022/01/04 02:29:33;;;;;;;16.50;3.58;;;;;;;;;;4995612;28;20026;-63
2022/01/04 02:31:59;;;;;;;21.23;2.83;;;;;;;;;;4995833;28;20026;-63
2022/01/04 02:34:25;;;;;;;18.77;2.80;;;;;;;;;;4995509;28;20030;-63
2022/01/04 02:36:51;;;;;;;25.15;5.57;;;;;;;;;;4995759;28;20023;-63
2022/01/04 02:39:17;;;;;;;11.60;2.70;;;;;;;;;;4995208;28;20469;-62
2022/01/04 02:41:43;;;;;;;14.82;3.22;;;;;;;;;;4995178;28;20030;-63
2022/01/04 02:44:09;;;;;;;20.95;2.70;;;;;;;;;;4995720;28;20030;-63
2022/01/04 02:46:35;;;;;;;18.95;3.03;;;;;;;;;;4994732;28;20490;-63
2022/01/04 02:49:02;;;;;;;17.55;4.20;;;;;;;;;;4995585;28;20054;-63
2022/01/04 02:51:28;;;;;;;16.80;3.30;;;;;;;;;;4995239;28;20073;-63
2022/01/04 02:53:54;;;;;;;27.00;3.30;;;;;;;;;;4994910;28;20031;-63
2022/01/04 02:56:20;;;;;;;18.23;3.53;;;;;;;;;;4995190;28;20034;-63
2022/01/04 02:58:46;;;;;;;12.85;2.20;;;;;;;;;;4995275;28;20030;-63
2022/01/04 03:01:12;;;;;;;19.58;2.95;;;;;;;;;;4995153;28;20084;-63
2022/01/04 03:03:38;;;;;;;12.35;2.65;;;;;;;;;;4995000;28;20482;-63
2022/01/04 03:06:04;;;;;;;20.35;2.72;;;;;;;;;;4995138;28;20233;-63
2022/01/04 03:08:30;;;;;;;24.83;3.47;;;;;;;;;;4994156;28;20097;-63
2022/01/04 03:10:56;;;;;;;14.35;2.70;;;;;;;;;;4994783;28;20395;-63
2022/01/04 03:13:22;;;;;;;17.23;2.67;;;;;;;;;;4995036;28;20026;-63
2022/01/04 03:15:48;;;;;;;12.40;2.25;;;;;;;;;;4995225;28;20117;-66
2022/01/04 03:18:14;;;;;;;12.68;2.65;;;;;;;;;;4995069;28;20406;-67
2022/01/04 03:20:41;;;;;;;20.08;3.40;;;;;;;;;;4994616;28;20022;-67
2022/01/04 03:23:10;;;;;;;21.45;2.53;;;;;;;;;;4994142;28;20471;-67
2022/01/04 03:25:36;;;;;;;13.52;2.70;;;;;;;;;;4994319;28;20034;-67
2022/01/04 03:28:03;;;;;;;20.17;3.38;;;;;;;;;;4994729;28;20045;-67
2022/01/04 03:30:29;;;;;;;18.27;2.40;;;;;;;;;;5011083;28;20049;-66
2022/01/04 03:32:55;;;;;;;15.63;2.70;;;;;;;;;;4996752;28;20449;-67
2022/01/04 03:35:22;;;;;;;20.33;2.38;;;;;;;;;;5010799;28;20093;-66
2022/01/04 03:37:50;;;;;;;31.70;4.68;;;;;;;;;;4994044;28;20088;-67
2022/01/04 03:40:16;;;;;;;20.85;3.20;;;;;;;;;;4994594;28;20041;-66
2022/01/04 03:42:43;;;;;;;16.13;2.65;;;;;;;;;;4994289;28;20406;-66
2022/01/04 03:45:09;;;;;;;21.33;2.80;;;;;;;;;;4977160;28;20462;-66
2022/01/04 03:47:35;;;;;;;25.77;4.78;;;;;;;;;;4994200;28;20053;-66
2022/01/04 03:50:01;;;;;;;16.75;2.40;;;;;;;;;;4993710;28;20026;-66
2022/01/04 03:52:28;;;;;;;18.40;2.80;;;;;;;;;;4994324;28;20437;-66
2022/01/04 03:54:54;;;;;;;25.13;2.80;;;;;;;;;;4993856;28;20413;-67
2022/01/04 03:57:20;;;;;;;18.58;3.50;;;;;;;;;;4994358;28;20109;-66
2022/01/04 03:59:46;;;;;;;21.35;2.67;;;;;;;;;;4993879;28;20120;-67
2022/01/04 04:02:12;;;;;;;16.45;2.72;;;;;;;;;;4994210;28;20027;-66
2022/01/04 04:04:38;;;;;;;19.75;3.03;;;;;;;;;;4976009;28;20045;-67
2022/01/04 04:07:05;;;;;;;21.58;2.97;;;;;;;;;;4993621;28;20173;-66
2022/01/04 04:09:34;;;;;;;24.88;3.65;;;;;;;;;;4994018;28;20536;-67
2022/01/04 04:12:01;;;;;;;20.15;2.60;;;;;;;;;;4993575;28;20034;-67
2022/01/04 04:14:27;;;;;;;18.02;1.77;;;;;;;;;;4993471;28;20042;-67
2022/01/04 04:16:53;;;;;;;12.40;2.10;;;;;;;;;;4993869;28;20112;-67
2022/01/04 04:19:20;;;;;;;10.25;1.83;;;;;;;;;;4993220;28;20034;-67
2022/01/04 04:21:46;;;;;;;6.22;1.42;;;;;;;;;;4993550;28;20123;-67
2022/01/04 04:24:12;;;;;;;11.63;2.25;;;;;;;;;;4972390;28;20431;-67
2022/01/04 04:26:38;;;;;;;11.52;1.50;;;;;;;;;;5000474;28;20034;-67
2022/01/04 04:29:04;;;;;;;13.75;1.83;;;;;;;;;;5013354;28;20036;-67
2022/01/04 04:31:30;;;;;;;10.25;1.83;;;;;;;;;;5010100;28;20022;-67
2022/01/04 04:33:57;;;;;;;13.90;2.30;;;;;;;;;;4975458;28;20375;-67
2022/01/04 04:36:24;;;;;;;15.45;2.28;;;;;;;;;;4993181;28;20034;-67
2022/01/04 04:38:50;;;;;;;18.35;2.65;;;;;;;;;;4993202;28;20414;-67
2022/01/04 04:41:16;;;;;;;19.67;3.65;;;;;;;;;;4993691;28;20042;-67
2022/01/04 04:43:43;;;;;;;18.48;2.42;;;;;;;;;;4993209;28;20033;-67
2022/01/04 04:46:09;;;;;;;20.65;3.22;;;;;;;;;;4993311;28;20472;-67
2022/01/04 04:48:35;;;;;;;26.92;3.53;;;;;;;;;;4992762;28;20030;-67
2022/01/04 04:51:01;;;;;;;25.05;2.50;;;;;;;;;;4993055;28;20026;-67
2022/01/04 04:53:27;;;;;;;19.05;2.50;;;;;;;;;;4993001;28;20030;-67
2022/01/04 04:55:53;;;;;;;21.48;2.75;;;;;;;;;;4992774;28;20026;-63
2022/01/04 04:58:19;;;;;;;16.23;2.83;;;;;;;;;;4993236;28;20022;-63
2022/01/04 05:00:45;;;;;;;15.32;2.80;;;;;;;;;;4992591;28;20041;-63
2022/01/04 05:03:11;;;;;;;20.70;2.85;;;;;;;;;;4992438;28;20022;-63
2022/01/04 05:05:38;;;;;;;15.18;2.75;;;;;;;;;;4992867;28;20096;-63
2022/01/04 05:08:04;;;;;;;35.13;3.53;;;;;;;;;;4992857;28;20125;-63
2022/01/04 05:10:31;;;;;;;23.92;2.70;;;;;;;;;;4993108;28;20084;-63
2022/01/04 05:12:57;;;;;;;17.88;3.33;;;;;;;;;;4992722;28;20029;-63
2022/01/04 05:15:23;;;;;;;11.20;2.17;;;;;;;;;;4992900;28;20089;-63
2022/01/04 05:17:49;;;;;;;30.30;4.43;;;;;;;;;;4992107;28;20058;-63
2022/01/04 05:20:15;;;;;;;22.98;2.85;;;;;;;;;;4993188;28;20034;-63
2022/01/04 05:22:42;;;;;;;25.67;2.75;;;;;;;;;;5001419;28;20034;-63
2022/01/04 05:25:08;;;;;;;15.07;2.45;;;;;;;;;;5003202;28;20455;-63
2022/01/04 05:27:34;;;;;;;20.55;4.22;;;;;;;;;;4992234;28;20034;-62
2022/01/04 05:30:01;;;;;;;26.00;3.38;;;;;;;;;;4992614;28;20483;-63
2022/01/04 05:32:27;;;;;;;26.00;2.80;;;;;;;;;;4992357;28;20045;-63
2022/01/04 05:34:53;;;;;;;15.23;2.20;;;;;;;;;;4992244;28;20069;-63
2022/01/04 05:37:19;;;;;;;16.80;2.40;;;;;;;;;;4992080;28;20061;-62
2022/01/04 05:39:45;;;;;;;19.55;2.88;;;;;;;;;;4991590;28;20042;-62
2022/01/04 05:42:11;;;;;;;22.77;2.70;;;;;;;;;;4992282;28;20054;-62
2022/01/04 05:44:37;;;;;;;24.27;4.55;;;;;;;;;;4993559;28;20038;-62
2022/01/04 05:47:05;;;;;;;19.55;2.75;;;;;;;;;;4995964;28;20197;-62
2022/01/04 05:49:31;;;;;;;28.38;3.47;;;;;;;;;;4996162;28;20119;-62
2022/01/04 05:51:57;;;;;;;29.38;3.13;;;;;;;;;;5001335;28;20026;-62
2022/01/04 05:54:23;;;;;;;26.45;3.92;;;;;;;;;;4996339;28;20033;-62
2022/01/04 05:56:49;;;;;;;28.55;4.20;;;;;;;;;;4996173;28;20041;-62
2022/01/04 05:59:15;;;;;;;38.67;3.60;;;;;;;;;;4996440;28;20033;-62
2022/01/04 06:01:41;;;;;;;28.35;5.18;;;;;;;;;;4995604;28;20394;-61
2022/01/04 06:04:10;;;;;;;24.48;3.03;;;;;;;;;;4995847;28;20061;-62
2022/01/04 06:06:36;;;;;;;27.80;4.40;;;;;;;;;;4995678;28;20023;-61
2022/01/04 06:09:02;;;;;;;30.90;3.70;;;;;;;;;;4992443;28;20026;-61
2022/01/04 06:16:51;;;;;;;23.38;3.47;;;;;;;;;;4995413;28;20403;-62
2022/01/04 06:19:17;;;;;;;22.92;3.08;;;;;;;;;;4993892;28;20100;-61
2022/01/04 06:21:43;;;;;;;20.95;3.25;;;;;;;;;;4995826;28;20022;-62
2022/01/04 06:24:10;;;;;;;33.22;4.38;;;;;;;;;;4986068;28;20384;-62
2022/01/04 06:26:36;;;;;;;20.55;3.33;;;;;;;;;;4992776;28;20043;-62
2022/01/04 06:29:02;;;;;;;17.08;3.15;;;;;;;;;;4990459;28;20286;-62
2022/01/04 06:31:29;;;;;;;16.98;2.97;;;;;;;;;;4994261;28;20026;-62
2022/01/04 06:33:56;;;;;;;30.85;3.92;;;;;;;;;;4984192;28;20494;-62
2022/01/04 06:36:23;;;;;;;25.90;4.65;;;;;;;;;;5006217;28;20438;-63
2022/01/04 06:38:49;;;;;;;22.58;3.60;;;;;;;;;;4996707;28;20437;-63
2022/01/04 06:41:15;;;;;;;14.75;2.67;;;;;;;;;;4994441;28;20030;-63
2022/01/04 06:43:41;;;;;;;24.30;3.70;;;;;;;;;;4993775;28;20525;-65
2022/01/04 06:46:11;;;;;;;24.27;3.28;;;;;;;;;;4991528;28;20046;-63
2022/01/04 06:48:37;;;;;;;17.67;2.90;;;;;;;;;;4990889;28;20018;-63
2022/01/04 06:51:03;;;;;;;24.40;3.03;;;;;;;;;;4976277;28;20034;-63
2022/01/04 06:53:30;;;;;;;22.40;2.30;;;;;;;;;;4994109;28;20109;-63
2022/01/04 06:55:56;;;;;;;17.05;3.05;;;;;;;;;;4991510;28;20101;-63
2022/01/04 06:58:22;;;;;;;21.65;3.13;;;;;;;;;;4992786;28;20030;-63
2022/01/04 07:00:48;;;;;;;21.00;3.20;;;;;;;;;;4993128;28;20049;-63
2022/01/04 07:03:14;;;;;;;30.65;3.85;;;;;;;;;;4997553;28;20132;-63
2022/01/04 07:05:40;;;;;;;17.23;2.53;;;;;;;;;;5000039;28;20390;-63
2022/01/04 07:08:06;;;;;;;26.48;4.55;;;;;;;;;;4995051;28;20356;-68
2022/01/04 07:10:32;;;;;;;32.38;4.20;;;;;;;;;;4994421;28;20038;-70
2022/01/04 07:12:58;;;;;;;26.98;3.88;;;;;;;;;;4991374;28;20029;-63
2022/01/04 07:15:24;;;;;;;18.10;4.07;;;;;;;;;;4990965;28;20427;-63
2022/01/04 07:17:51;;;;;;;16.02;3.10;;;;;;;;;;5000170;28;20027;-64
2022/01/04 07:20:17;;;;;;;24.73;4.72;;;;;;;;;;4990160;28;20048;-64
2022/01/04 07:22:43;;;;;;;21.40;3.40;;;;;;;;;;4991020;28;20054;-64
2022/01/04 07:25:09;;;;;;;16.98;3.03;;;;;;;;;;4995586;28;20031;-64
2022/01/04 07:27:35;;;;;;;22.38;3.03;;;;;;;;;;4995534;28;20541;-64
2022/01/04 07:30:02;;;;;;;31.00;2.97;;;;;;;;;;4993015;28;20118;-64
2022/01/04 07:32:28;;;;;;;14.18;2.72;;;;;;;;;;4997473;28;20023;-64
2022/01/04 07:34:54;;;;;;;14.57;3.33;;;;;;;;;;4993025;28;20036;-64
2022/01/04 07:37:21;;;;;;;15.32;3.40;;;;;;;;;;4951509;28;1185052;-64
2022/01/04 07:39:47;;;;;;;15.00;2.00;;;;;;;;;;5000109;28;20026;-64
2022/01/04 07:42:13;;;;;;;15.50;2.80;;;;;;;;;;5010836;28;20406;-64
2022/01/04 07:44:42;;;;;;;8.23;1.95;;;;;;;;;;4980362;28;20030;-64
2022/01/04 07:47:08;;;;;;;16.45;2.22;;;;;;;;;;5009878;28;20041;-64
2022/01/04 07:49:34;;;;;;;17.23;2.83;;;;;;;;;;4998243;28;20010;-63
2022/01/04 07:52:00;;;;;;;16.15;2.60;;;;;;;;;;5006081;28;20053;-64
2022/01/04 07:54:26;;;;;;;19.73;2.85;;;;;;;;;;4993919;28;20031;-63
2022/01/04 07:56:53;;;;;;;16.92;3.25;;;;;;;;;;5003188;28;20030;-63
2022/01/04 07:59:20;;;;;;;12.15;2.30;;;;;;;;;;5001870;28;20414;-63
2022/01/04 08:01:46;;;;;;;15.65;2.47;;;;;;;;;;4994079;28;20034;-63
2022/01/04 08:04:12;;;;;;;13.77;3.45;;;;;;;;;;4993966;28;20096;-63
2022/01/04 08:06:39;;;;;;;16.80;2.47;;;;;;;;;;4993184;28;20026;-63
2022/01/04 08:09:05;;;;;;;10.93;2.38;;;;;;;;;;4993836;28;20034;-63
2022/01/04 08:11:31;;;;;;;17.88;2.67;;;;;;;;;;4993668;28;20027;-63
2022/01/04 08:13:57;;;;;;;26.02;2.58;;;;;;;;;;4993817;28;20030;-63
2022/01/04 08:16:23;;;;;;;20.33;2.63;;;;;;;;;;4993659;28;20081;-63
2022/01/04 08:18:50;;;;;;;16.65;2.45;;;;;;;;;;4994061;28;20070;-63
2022/01/04 08:21:16;;;;;;;21.42;1.98;;;;;;;;;;4993469;28;20026;-63
2022/01/04 08:23:42;;;;;;;9.35;2.17;;;;;;;;;;4993753;28;20113;-63
2022/01/04 08:26:08;;;;;;;25.40;4.72;;;;;;;;;;4993310;28;20031;-63
2022/01/04 08:28:34;;;;;;;11.18;2.13;;;;;;;;;;4992879;28;20022;-63
2022/01/04 08:31:00;;;;;;;14.07;3.15;;;;;;;;;;5006046;28;20360;-63
2022/01/04 08:33:26;;;;;;;9.65;2.10;;;;;;;;;;5004122;28;20116;-63
2022/01/04 08:35:52;;;;;;;12.23;2.50;;;;;;;;;;4998608;28;20030;-63
2022/01/04 08:38:19;;;;;;;10.30;1.92;;;;;;;;;;5008927;28;20050;-63
2022/01/04 08:40:45;;;;;;;18.15;2.78;;;;;;;;;;4997913;28;20474;-63
2022/01/04 08:43:11;;;;;;;11.48;1.60;;;;;;;;;;5004107;28;20037;-63
2022/01/04 08:45:37;;;;;;;23.40;3.13;;;;;;;;;;5005109;28;20034;-63
2022/01/04 08:48:04;;;;;;;18.80;2.50;;;;;;;;;;4997074;28;20037;-63
2022/01/04 08:50:30;;;;;;;10.77;2.53;;;;;;;;;;5008896;28;20529;-63
2022/01/04 08:52:56;;;;;;;24.02;2.65;;;;;;;;;;4999478;28;20063;-63
2022/01/04 08:55:23;;;;;;;17.38;3.40;;;;;;;;;;5001557;28;20491;-64
2022/01/04 08:57:50;;;;;;;8.10;1.77;;;;;;;;;;4991813;28;20035;-63
2022/01/04 09:00:17;;;;;;;15.98;2.28;;;;;;;;;;5000528;28;20037;-65
2022/01/04 09:02:45;;;;;;;12.27;1.83;;;;;;;;;;4995154;28;20414;-63
2022/01/04 09:05:12;;;;;;;13.68;1.88;;;;;;;;;;4986683;28;20177;-63
2022/01/04 09:07:38;;;;;;;11.10;2.35;;;;;;;;;;4993551;28;20506;-63
2022/01/04 09:10:05;;;;;;;9.43;1.27;;;;;;;;;;4986403;28;20030;-63
2022/01/04 09:13:00;;;;;;;8.55;1.90;;;;;;;;;;4991212;28;20104;-63
2022/01/04 09:20:51;;;;;;;10.15;1.30;;;;;;;;;;4991715;28;20084;-63
2022/01/04 09:23:18;;;;;;;6.32;1.67;;;;;;;;;;4986561;28;20073;-63
2022/01/04 09:25:49;;;;;;;9.23;2.33;;;;;;;;;;4987788;28;20585;-63
2022/01/04 09:28:15;;;;;;;10.57;1.63;;;;;;;;;;4989489;28;20502;-63
2022/01/04 09:30:44;;;;;;;12.40;1.70;;;;;;;;;;4989450;28;20042;-63
2022/01/04 09:33:10;;;;;;;8.55;1.33;;;;;;;;;;4993052;28;20097;-63
2022/01/04 09:35:36;;;;;;;2.53;0.98;;;;;;;;;;4993695;28;20026;-63
2022/01/04 09:38:06;;;;;;;6.07;1.00;;;;;;;;;;4992258;28;20524;-63
2022/01/04 09:40:33;;;;;;;11.23;1.90;;;;;;;;;;4991431;28;20023;-65
2022/01/04 09:42:59;;;;;;;19.88;1.58;;;;;;;;;;4990236;28;20042;-63
2022/01/04 09:45:25;;;;;;;11.55;1.02;;;;;;;;;;4991063;28;20061;-63
2022/01/04 09:47:51;;;;;;;4.55;1.10;;;;;;;;;;4990122;28;20037;-63
2022/01/04 09:50:17;;;;;;;7.85;1.20;;;;;;;;;;4992432;28;20553;-63
2022/01/04 09:52:46;;;;;;;5.63;1.42;;;;;;;;;;4987795;28;20023;-65
2022/01/04 09:55:13;;;;;;;5.47;1.13;;;;;;;;;;4987916;28;20030;-63
2022/01/04 09:57:40;;;;;;;11.10;1.45;;;;;;;;;;4990298;28;20042;-64
2022/01/04 10:00:07;;;;;;;8.07;1.60;;;;;;;;;;4989383;28;20045;-63
2022/01/04 10:02:33;;;;;;;4.25;1.73;;;;;;;;;;4990916;28;20031;-63
2022/01/04 10:05:20;;;;;;;6.10;1.30;;;;;;;;;;4988605;28;20060;-63
2022/01/04 10:07:46;;;;;;;9.18;3.10;;;;;;;;;;4987284;28;20057;-63
2022/01/04 10:10:14;;;;;;;6.78;1.40;;;;;;;;;;4988693;28;20057;-63
2022/01/04 10:12:51;;;;;;;11.00;1.80;;;;;;;;;;4966418;28;20495;-63
2022/01/04 10:15:30;;;;;;;12.25;1.70;;;;;;;;;;4984432;28;20149;-63
2022/01/04 10:17:56;;;;;;;12.80;1.92;;;;;;;;;;4990356;28;20057;-63
2022/01/04 10:20:22;;;;;;;10.80;1.92;;;;;;;;;;4987796;28;20023;-63
2022/01/04 10:22:50;;;;;;;12.32;1.90;;;;;;;;;;4990137;28;20022;-63
2022/01/04 10:25:19;;;;;;;10.55;2.00;;;;;;;;;;4989629;28;20030;-63
2022/01/04 10:27:45;;;;;;;9.90;1.58;;;;;;;;;;4991440;28;20058;-63
2022/01/04 10:30:13;;;;;;;17.08;3.13;;;;;;;;;;4983556;28;20027;-63
2022/01/04 10:32:44;;;;;;;10.60;1.65;;;;;;;;;;4988854;28;20037;-63
2022/01/04 10:35:10;;;;;;;7.22;1.55;;;;;;;;;;4990171;28;20505;-63
2022/01/04 10:37:39;;;;;;;8.55;1.45;;;;;;;;;;4991637;28;20078;-63
2022/01/04 10:40:06;;;;;;;9.50;2.53;;;;;;;;;;4980533;28;20414;-63
2022/01/04 10:42:32;;;;;;;11.40;2.10;;;;;;;;;;4990112;28;20022;-63
2022/01/04 10:44:58;;;;;;;8.02;2.05;;;;;;;;;;4978078;28;20491;-63
2022/01/04 10:47:29;;;;;;;14.88;1.98;;;;;;;;;;4993473;28;20038;-63
2022/01/04 10:49:55;;;;;;;9.10;1.65;;;;;;;;;;4995969;28;20093;-63
2022/01/04 10:52:31;;;;;;;9.45;1.92;;;;;;;;;;4989375;28;20081;-63
2022/01/04 10:55:15;;;;;;;8.10;1.50;;;;;;;;;;4992214;28;20026;-63
2022/01/04 10:57:41;;;;;;;6.40;1.55;;;;;;;;;;4992091;28;20022;-63
2022/01/04 11:00:15;;;;;;;13.15;2.28;;;;;;;;;;4993622;28;20117;-63
2022/01/04 11:02:41;;;;;;;12.88;2.35;;;;;;;;;;4976744;28;20447;-63
2022/01/04 11:05:23;;;;;;;12.60;1.70;;;;;;;;;;4975664;28;20026;-63
2022/01/04 11:08:00;;;;;;;9.63;1.57;;;;;;;;;;4988051;28;20042;-63
2022/01/04 11:10:30;;;;;;;11.45;2.03;;;;;;;;;;4987620;28;20373;-63
2022/01/04 11:13:00;;;;;;;19.38;2.53;;;;;;;;;;4993523;28;20038;-64
2022/01/04 11:15:27;;;;;;;18.67;2.13;;;;;;;;;;4991170;28;20049;-63
2022/01/04 11:17:53;;;;;;;14.65;2.20;;;;;;;;;;4998294;28;20030;-63
2022/01/04 11:20:20;;;;;;;25.02;3.83;;;;;;;;;;4992325;28;20018;-63
2022/01/04 11:22:47;;;;;;;11.10;2.03;;;;;;;;;;5002263;28;20030;-63
2022/01/04 11:25:16;;;;;;;10.05;2.05;;;;;;;;;;5009733;28;20041;-62
2022/01/04 11:27:42;;;;;;;10.77;2.33;;;;;;;;;;4996812;28;20038;-63
2022/01/04 11:30:13;;;;;;;9.85;2.20;;;;;;;;;;5010215;28;20030;-62
2022/01/04 11:32:41;;;;;;;17.83;2.25;;;;;;;;;;4995518;28;20030;-63
2022/01/04 11:35:12;;;;;;;16.98;2.75;;;;;;;;;;4994044;28;20080;-63
2022/01/04 11:37:41;;;;;;;11.88;2.45;;;;;;;;;;4993380;28;20537;-63
2022/01/04 11:40:46;;;;;;;6.97;1.75;;;;;;;;;;4992534;28;20049;-63
2022/01/04 11:43:26;;;;;;;14.70;2.42;;;;;;;;;;4924112;29;20573;-63
2022/01/04 11:45:52;;;;;;;10.35;2.22;;;;;;;;;;4919057;29;20059;-63
2022/01/04 11:48:32;;;;;;;15.18;2.28;;;;;;;;;;4924041;29;20044;-63
2022/01/04 11:51:00;;;;;;;16.67;2.55;;;;;;;;;;4919514;29;20111;-63
2022/01/04 11:53:26;;;;;;;8.10;1.73;;;;;;;;;;4915241;29;20040;-63
2022/01/04 11:56:00;;;;;;;5.47;1.95;;;;;;;;;;4914672;29;20127;-63
2022/01/04 11:58:27;;;;;;;12.35;2.25;;;;;;;;;;4917676;29;20404;-63
2022/01/04 12:00:57;;;;;;;8.60;1.65;;;;;;;;;;4914134;29;20039;-63
2022/01/04 12:03:37;;;;;;;12.73;2.30;;;;;;;;;;4918528;29;20046;-63
2022/01/04 12:06:05;;;;;;;9.07;2.17;;;;;;;;;;4919476;29;20051;-63
2022/01/04 12:08:35;;;;;;;12.43;1.60;;;;;;;;;;4919050;29;20028;-63
2022/01/04 12:11:01;;;;;;;19.13;2.38;;;;;;;;;;4922632;29;20035;-63
2022/01/04 12:13:57;;;;;;;15.07;2.08;;;;;;;;;;4940829;28;20062;-63
2022/01/04 12:16:36;;;;;;;8.52;2.25;;;;;;;;;;4975141;28;20462;-63
2022/01/04 12:19:04;;;;;;;7.03;1.27;;;;;;;;;;5003966;28;20035;-63
2022/01/04 12:21:34;;;;;;;15.93;2.10;;;;;;;;;;5001405;28;20096;-63
2022/01/04 12:24:01;;;;;;;12.60;2.40;;;;;;;;;;4992984;28;20093;-63
2022/01/04 12:26:32;;;;;;;13.57;2.00;;;;;;;;;;4991520;28;20038;-63
2022/01/04 12:28:58;;;;;;;14.25;2.00;;;;;;;;;;4988711;28;20447;-63
2022/01/04 12:31:25;;;;;;;10.20;1.58;;;;;;;;;;4994219;28;20093;-63
2022/01/04 12:34:02;;;;;;;20.55;3.15;;;;;;;;;;4995592;28;20447;-63
2022/01/04 12:36:28;;;;;;;14.55;1.80;;;;;;;;;;4995138;28;20430;-62
2022/01/04 12:38:55;;;;;;;15.02;2.25;;;;;;;;;;4993714;28;20129;-63
2022/01/04 12:41:22;;;;;;;9.85;2.72;;;;;;;;;;4993745;28;20134;-63
2022/01/04 12:43:50;;;;;;;6.93;1.48;;;;;;;;;;4993579;28;20081;-63
2022/01/04 12:46:25;;;;;;;12.45;1.70;;;;;;;;;;4992835;28;20113;-63
2022/01/04 12:48:53;;;;;;;16.02;2.13;;;;;;;;;;4993501;28;20018;-63
2022/01/04 12:51:26;;;;;;;12.02;1.90;;;;;;;;;;4992917;28;20030;-63
2022/01/04 12:53:53;;;;;;;8.65;1.67;;;;;;;;;;4992938;28;20549;-62
2022/01/04 12:56:19;;;;;;;10.55;1.65;;;;;;;;;;4992839;28;20018;-62
2022/01/04 12:58:45;;;;;;;13.30;2.20;;;;;;;;;;4993176;28;20034;-63
2022/01/04 13:01:12;;;;;;;6.18;1.70;;;;;;;;;;4992654;28;20034;-63
2022/01/04 13:03:39;;;;;;;13.98;1.58;;;;;;;;;;4993648;28;20386;-62
2022/01/04 13:06:05;;;;;;;14.73;2.20;;;;;;;;;;4992872;28;20040;-63
2022/01/04 13:08:31;;;;;;;9.82;1.70;;;;;;;;;;4992948;28;20026;-63
2022/01/04 13:11:07;;;;;;;5.70;1.20;;;;;;;;;;4993087;28;20109;-62
2022/01/04 13:13:34;;;;;;;9.30;1.50;;;;;;;;;;4993160;28;20022;-62
2022/01/04 13:16:18;;;;;;;9.85;1.48;;;;;;;;;;4992468;28;20050;-63
2022/01/04 13:18:45;;;;;;;11.32;1.92;;;;;;;;;;4993062;28;20042;-63
2022/01/04 13:21:11;;;;;;;11.60;2.15;;;;;;;;;;4992444;28;20027;-63
2022/01/04 13:23:40;;;;;;;8.60;1.88;;;;;;;;;;4992998;28;20048;-63
2022/01/04 13:26:08;;;;;;;8.18;1.85;;;;;;;;;;4992633;28;20034;-63
2022/01/04 13:28:35;;;;;;;9.80;1.85;;;;;;;;;;4992758;28;20096;-62
2022/01/04 13:31:01;;;;;;;12.80;1.98;;;;;;;;;;4979091;28;20022;-62
2022/01/04 13:33:27;;;;;;;11.65;1.52;;;;;;;;;;4975394;28;20055;-63
2022/01/04 13:35:55;;;;;;;11.93;2.08;;;;;;;;;;4992689;28;20125;-62
2022/01/04 13:38:22;;;;;;;8.60;1.67;;;;;;;;;;4992075;28;20125;-62
2022/01/04 13:40:50;;;;;;;6.32;1.73;;;;;;;;;;4992767;28;20033;-62
2022/01/04 13:43:17;;;;;;;14.27;1.45;;;;;;;;;;4992334;28;20037;-62
2022/01/04 13:45:44;;;;;;;13.18;1.67;;;;;;;;;;4992589;28;20454;-63
2022/01/04 13:48:11;;;;;;;13.65;1.75;;;;;;;;;;4992583;28;20041;-62
2022/01/04 13:50:37;;;;;;;7.93;1.50;;;;;;;;;;4992511;28;20030;-63
2022/01/04 13:53:03;;;;;;;13.27;1.80;;;;;;;;;;4992441;28;20446;-63
2022/01/04 13:55:46;;;;;;;9.85;1.90;;;;;;;;;;4992755;28;20034;-62
2022/01/04 13:58:28;;;;;;;8.10;1.58;;;;;;;;;;4992543;28;20558;-62
2022/01/04 14:00:54;;;;;;;9.18;2.53;;;;;;;;;;4992241;28;20126;-62
2022/01/04 14:03:28;;;;;;;9.23;2.00;;;;;;;;;;4992207;28;20664;-63
2022/01/04 14:05:54;;;;;;;8.23;1.60;;;;;;;;;;4994431;28;20117;-62
2022/01/04 14:08:20;;;;;;;6.53;1.30;;;;;;;;;;4995915;28;20030;-63
2022/01/04 14:10:47;;;;;;;6.07;1.25;;;;;;;;;;4996278;28;20027;-62
2022/01/04 14:13:32;;;;;;;12.00;2.55;;;;;;;;;;4995801;28;20045;-62
2022/01/04 14:16:10;;;;;;;3.47;1.35;;;;;;;;;;4996176;28;20491;-63
2022/01/04 14:18:37;;;;;;;3.95;1.13;;;;;;;;;;4996127;28;20360;-62
2022/01/04 14:21:03;;;;;;;5.43;1.02;;;;;;;;;;4995948;28;20030;-62
2022/01/04 14:23:33;;;;;;;5.28;1.30;;;;;;;;;;4996050;28;20030;-63
2022/01/04 14:26:04;;;;;;;12.10;1.38;;;;;;;;;;4978422;28;20404;-62
2022/01/04 14:28:30;;;;;;;7.78;1.45;;;;;;;;;;4995387;28;20069;-63
2022/01/04 14:30:56;;;;;;;7.15;1.63;;;;;;;;;;4996096;28;20610;-62
2022/01/04 14:33:22;;;;;;;2.35;1.40;;;;;;;;;;4995471;28;20496;-62
2022/01/04 14:35:49;;;;;;;5.50;1.30;;;;;;;;;;4995901;28;20042;-62
2022/01/04 14:38:16;;;;;;;6.35;1.23;;;;;;;;;;4995241;28;20133;-62
2022/01/04 14:40:46;;;;;;;4.18;1.38;;;;;;;;;;4995602;28;20045;-62
2022/01/04 14:43:12;;;;;;;6.07;1.00;;;;;;;;;;4995206;28;20164;-62
2022/01/04 14:45:38;;;;;;;5.43;1.50;;;;;;;;;;4995812;28;20030;-62
2022/01/04 14:48:05;;;;;;;5.72;0.98;;;;;;;;;;4995467;28;20501;-62
2022/01/04 14:50:31;;;;;;;2.53;0.90;;;;;;;;;;4995272;28;20034;-62